Time;durP1;ratioP1;P1;durP2;ratioP2;P2;SDS_P1;SDS_P2;PMS_P1;PMS_P2;Temp;Humidity;BMP_temperature;BMP_pressure;BME280_temperature;BME280_humidity;BME280_pressure;Samples;Min_cycle;Max_cycle;Signal;HPM_P1;HPM_P2
2022/12/08 00:00:17;;;;;;;8.33;7.55;;;;;;;-1.54;57.71;101655.60;464793;114;922886;-78
2022/12/08 00:01:22;;;;;;;8.82;7.28;;;;;;;-1.54;57.74;101647.58;464732;114;922424;-77
2022/12/08 00:02:26;;;;;;;8.32;7.62;;;;;;;-1.54;57.88;101648.44;464609;114;922970;-75
2022/12/08 00:03:29;;;;;;;9.56;7.70;;;;;;;-1.53;57.81;101652.83;464719;114;922467;-76
2022/12/08 00:09:20;;;;;;;8.44;7.69;;;;;;;-1.53;57.92;101651.97;464643;114;922428;-77
2022/12/08 00:09:42;;;;;;;8.59;7.82;;;;;;;-1.52;58.13;101651.87;464565;114;923642;-77
2022/12/08 00:10:46;;;;;;;8.80;7.98;;;;;;;-1.52;58.05;101653.69;464742;114;922536;-76
2022/12/08 00:12:00;;;;;;;8.34;7.67;;;;;;;-1.55;58.03;101645.90;464552;114;922620;-76
2022/12/08 00:13:03;;;;;;;8.08;7.36;;;;;;;-1.57;58.01;101651.34;464354;114;922463;-77
2022/12/08 00:14:06;;;;;;;9.16;8.28;;;;;;;-1.60;58.13;101648.91;464750;114;922454;-77
2022/12/08 00:15:10;;;;;;;9.89;8.89;;;;;;;-1.59;58.14;101649.73;464697;114;922525;-77
2022/12/08 00:16:14;;;;;;;10.26;8.82;;;;;;;-1.59;58.22;101655.08;464698;113;922452;-77
2022/12/08 00:17:17;;;;;;;8.88;8.08;;;;;;;-1.59;58.34;101661.29;458945;115;922472;-77
2022/12/08 00:18:20;;;;;;;9.08;8.31;;;;;;;-1.57;58.20;101655.84;459007;115;922836;-77
2022/12/08 00:19:24;;;;;;;9.85;8.86;;;;;;;-1.56;58.18;101652.20;458967;115;922481;-77
2022/12/08 00:20:27;;;;;;;9.61;8.77;;;;;;;-1.57;58.16;101659.38;458963;115;922627;-76
2022/12/08 00:21:30;;;;;;;8.23;7.59;;;;;;;-1.56;58.24;101646.86;459030;115;930557;-76
2022/12/08 00:22:33;;;;;;;9.88;9.13;;;;;;;-1.57;58.17;101647.81;459045;115;922519;-76
2022/12/08 00:23:36;;;;;;;9.86;8.98;;;;;;;-1.57;58.18;101654.02;459066;115;922590;-76
2022/12/08 00:24:41;;;;;;;8.41;7.49;;;;;;;-1.56;58.22;101655.73;459004;115;922503;-76
2022/12/08 00:25:44;;;;;;;9.35;8.53;;;;;;;-1.56;58.27;101650.39;458846;115;922391;-76
2022/12/08 00:26:47;;;;;;;10.71;9.77;;;;;;;-1.56;58.41;101653.06;459049;115;922480;-77
2022/12/08 00:27:50;;;;;;;9.74;8.94;;;;;;;-1.56;58.42;101644.19;458982;115;922598;-77
2022/12/08 00:28:54;;;;;;;10.34;9.49;;;;;;;-1.56;58.51;101646.86;458935;115;922878;-77
2022/12/08 00:29:57;;;;;;;10.38;9.35;;;;;;;-1.57;58.62;101646.00;459027;115;922940;-77
2022/12/08 00:31:09;;;;;;;10.04;9.11;;;;;;;-1.56;58.72;101642.37;459038;115;922456;-77
2022/12/08 00:32:12;;;;;;;8.97;8.20;;;;;;;-1.56;58.77;101641.51;458900;115;922590;-75
2022/12/08 00:33:15;;;;;;;11.75;9.10;;;;;;;-1.56;58.78;101638.84;459087;115;922573;-77
2022/12/08 00:34:19;;;;;;;9.17;8.35;;;;;;;-1.57;58.95;101634.45;458991;115;922875;-77
2022/12/08 00:35:22;;;;;;;9.48;8.73;;;;;;;-1.58;58.93;101638.94;458937;115;922522;-77
2022/12/08 00:36:26;;;;;;;10.06;9.18;;;;;;;-1.58;58.98;101640.75;458969;115;930547;-76
2022/12/08 00:37:29;;;;;;;9.51;8.71;;;;;;;-1.59;59.08;101636.36;458957;115;922540;-76
2022/12/08 00:38:32;;;;;;;9.76;8.89;;;;;;;-1.61;59.30;101633.83;458880;115;930457;-76
2022/12/08 00:39:36;;;;;;;10.34;9.39;;;;;;;-1.63;59.52;101638.42;458888;115;922973;-75
2022/12/08 00:40:45;;;;;;;9.97;8.94;;;;;;;-1.65;59.69;101631.48;458961;115;930480;-76
2022/12/08 00:43:09;;;;;;;9.23;8.53;;;;;;;-1.71;60.00;101641.63;458815;115;922573;-76
2022/12/08 00:44:15;;;;;;;9.19;8.21;;;;;;;-1.75;60.22;101637.48;458928;115;922608;-78
2022/12/08 00:45:18;;;;;;;9.91;8.98;;;;;;;-1.78;60.39;101634.19;459970;115;922568;-76
2022/12/08 00:46:22;;;;;;;9.56;8.81;;;;;;;-1.80;60.54;101641.45;460276;115;922481;-76
2022/12/08 00:47:25;;;;;;;9.56;8.71;;;;;;;-1.79;60.75;101640.48;460377;115;924835;-77
2022/12/08 00:48:28;;;;;;;9.54;8.59;;;;;;;-1.79;60.86;101644.02;460363;115;922444;-76
2022/12/08 00:49:31;;;;;;;9.58;8.68;;;;;;;-1.77;60.96;101646.59;460326;115;922506;-77
2022/12/08 00:50:34;;;;;;;9.30;8.64;;;;;;;-1.76;61.04;101646.45;460363;115;922952;-76
2022/12/08 00:51:38;;;;;;;9.43;8.44;;;;;;;-1.74;61.10;101644.54;460390;115;922543;-77
2022/12/08 00:52:41;;;;;;;9.33;8.28;;;;;;;-1.72;61.26;101641.77;460325;115;922466;-76
2022/12/08 00:53:44;;;;;;;9.09;8.33;;;;;;;-1.71;61.26;101646.16;460415;115;922996;-77
2022/12/08 00:54:47;;;;;;;10.24;7.97;;;;;;;-1.71;61.30;101644.30;460312;115;922689;-76
2022/12/08 00:55:51;;;;;;;9.17;8.48;;;;;;;-1.69;61.39;101647.73;460343;115;922533;-75
2022/12/08 00:56:55;;;;;;;8.94;8.12;;;;;;;-1.68;61.41;101645.92;460296;115;922358;-77
2022/12/08 00:57:58;;;;;;;9.13;8.44;;;;;;;-1.66;61.54;101644.00;460368;115;922485;-76
2022/12/08 00:59:04;;;;;;;9.28;8.33;;;;;;;-1.64;61.60;101646.55;460369;115;922572;-76
2022/12/08 01:00:08;;;;;;;10.61;8.07;;;;;;;-1.61;61.79;101649.02;460134;115;923012;-77
2022/12/08 01:01:12;;;;;;;9.85;9.04;;;;;;;-1.61;61.79;101644.52;460324;115;922568;-77
2022/12/08 01:02:16;;;;;;;9.78;8.88;;;;;;;-1.60;61.86;101640.03;460162;115;922786;-76
2022/12/08 01:03:19;;;;;;;8.98;8.28;;;;;;;-1.60;61.86;101635.55;460352;115;923408;-76
2022/12/08 01:04:22;;;;;;;8.83;8.14;;;;;;;-1.59;62.12;101636.36;460323;115;922459;-76
2022/12/08 01:05:26;;;;;;;9.26;8.50;;;;;;;-1.61;62.11;101641.84;460311;115;922909;-77
2022/12/08 01:06:29;;;;;;;9.09;8.26;;;;;;;-1.61;62.17;101638.31;460307;115;922770;-78
2022/12/08 01:07:32;;;;;;;9.30;8.55;;;;;;;-1.59;62.34;101641.72;460316;115;922801;-77
2022/12/08 01:08:36;;;;;;;8.44;7.68;;;;;;;-1.60;62.40;101635.55;460285;115;922826;-77
2022/12/08 01:09:40;;;;;;;9.11;8.29;;;;;;;-1.59;62.64;101639.04;460102;115;922596;-76
2022/12/08 01:10:43;;;;;;;9.01;8.18;;;;;;;-1.60;62.63;101640.89;460284;115;922510;-76
2022/12/08 01:11:46;;;;;;;10.15;8.68;;;;;;;-1.60;62.71;101630.19;460273;115;930494;-76
2022/12/08 01:12:49;;;;;;;9.83;8.99;;;;;;;-1.60;62.80;101627.52;460358;115;922557;-76
2022/12/08 01:13:53;;;;;;;9.73;8.96;;;;;;;-1.64;62.81;101620.66;460388;115;922655;-75
2022/12/08 01:14:56;;;;;;;9.46;8.72;;;;;;;-1.64;62.81;101620.66;460244;115;922968;-77
2022/12/08 01:16:01;;;;;;;10.02;9.22;;;;;;;-1.64;63.11;101617.13;459784;115;922537;-76
2022/12/08 01:17:05;;;;;;;10.22;9.39;;;;;;;-1.65;63.08;101624.30;464640;113;922499;-76
2022/12/08 01:18:08;;;;;;;10.45;9.52;;;;;;;-1.66;63.15;101625.28;465441;114;922631;-76
2022/12/08 01:19:14;;;;;;;10.03;9.09;;;;;;;-1.67;63.14;101628.06;465344;114;930432;-76
2022/12/08 01:20:17;;;;;;;10.07;9.14;;;;;;;-1.69;63.25;101636.19;465286;113;922551;-76
2022/12/08 01:21:20;;;;;;;9.81;8.96;;;;;;;-1.71;63.24;101641.63;465553;114;922409;-77
2022/12/08 01:22:24;;;;;;;9.49;8.69;;;;;;;-1.71;63.31;101644.30;465568;114;922535;-77
2022/12/08 01:23:27;;;;;;;10.55;9.57;;;;;;;-1.70;63.45;101646.02;465471;114;922485;-76
2022/12/08 01:24:31;;;;;;;9.81;8.84;;;;;;;-1.68;63.56;101645.92;465463;113;922994;-77
2022/12/08 01:25:34;;;;;;;9.76;8.98;;;;;;;-1.65;63.62;101644.86;465507;114;922825;-76
2022/12/08 01:26:37;;;;;;;10.05;9.04;;;;;;;-1.64;63.49;101638.52;465564;114;922814;-76
2022/12/08 01:27:40;;;;;;;9.53;8.41;;;;;;;-1.64;63.50;101642.05;465579;114;922483;-76
2022/12/08 01:28:46;;;;;;;10.80;9.88;;;;;;;-1.63;63.56;101640.23;465571;114;922453;-77
2022/12/08 01:29:49;;;;;;;9.81;9.02;;;;;;;-1.60;63.61;101650.73;465299;113;922525;-77
2022/12/08 01:30:52;;;;;;;11.62;9.69;;;;;;;-1.60;63.73;101646.23;465565;113;922858;-77
2022/12/08 01:31:55;;;;;;;10.14;9.17;;;;;;;-1.57;63.69;101647.81;465524;114;922523;-76
2022/12/08 01:32:58;;;;;;;10.07;9.26;;;;;;;-1.54;63.79;101644.91;465524;113;923076;-76
2022/12/08 01:34:02;;;;;;;10.38;9.53;;;;;;;-1.52;63.75;101641.17;465523;114;922469;-77
2022/12/08 01:35:05;;;;;;;10.31;9.41;;;;;;;-1.48;63.75;101641.79;465552;114;922558;-76
2022/12/08 01:36:11;;;;;;;10.34;9.32;;;;;;;-1.44;63.78;101640.63;465502;114;922748;-76
2022/12/08 01:37:14;;;;;;;9.83;9.03;;;;;;;-1.42;63.78;101636.86;464523;114;923800;-76
2022/12/08 01:38:17;;;;;;;10.29;9.38;;;;;;;-1.39;63.75;101633.11;465553;114;922508;-76
2022/12/08 01:39:21;;;;;;;10.69;9.88;;;;;;;-1.36;63.74;101635.55;465448;114;922552;-76
2022/12/08 01:40:24;;;;;;;11.82;9.76;;;;;;;-1.33;63.80;101635.34;465434;114;922621;-77
2022/12/08 01:41:30;;;;;;;11.10;9.73;;;;;;;-1.30;63.81;101632.43;465564;114;922561;-77
2022/12/08 01:42:33;;;;;;;10.34;9.44;;;;;;;-1.29;63.66;101629.65;465326;114;923415;-76
2022/12/08 01:43:58;;;;;;;10.12;9.17;;;;;;;-1.28;63.55;101620.66;465545;114;922486;-76
2022/12/08 01:45:05;;;;;;;9.51;8.72;;;;;;;-1.26;63.54;101624.05;438573;120;923278;-76
2022/12/08 01:46:08;;;;;;;10.94;9.96;;;;;;;-1.28;63.37;101623.34;439904;120;922840;-77
2022/12/08 01:47:11;;;;;;;11.21;10.32;;;;;;;-1.30;63.19;101619.91;461600;114;922746;-78
2022/12/08 01:48:18;;;;;;;10.05;9.15;;;;;;;-1.29;63.17;101626.97;463803;114;922447;-77
2022/12/08 01:49:27;;;;;;;10.57;9.66;;;;;;;-1.31;63.11;101620.02;463152;114;922455;-76
2022/12/08 01:50:31;;;;;;;11.03;9.95;;;;;;;-1.29;63.09;101623.44;463528;114;922495;-77
2022/12/08 01:51:56;;;;;;;10.46;9.42;;;;;;;-1.31;63.15;101620.88;463671;114;922578;-78
2022/12/08 01:53:03;;;;;;;11.20;10.27;;;;;;;-1.30;62.98;101621.73;463571;114;922549;-76
2022/12/08 01:54:07;;;;;;;10.88;9.99;;;;;;;-1.31;63.09;101623.55;463065;114;922534;-76
2022/12/08 01:55:13;;;;;;;10.38;9.45;;;;;;;-1.30;62.93;101621.73;463665;114;922489;-75
2022/12/08 01:56:38;;;;;;;10.58;9.75;;;;;;;-1.31;62.89;101630.72;462835;114;922470;-76
2022/12/08 01:57:50;;;;;;;10.13;9.33;;;;;;;-1.31;62.85;101636.92;454895;116;922728;-77
2022/12/08 01:58:55;;;;;;;11.07;9.96;;;;;;;-1.33;62.85;101628.17;456329;114;922662;-76
2022/12/08 02:00:09;;;;;;;11.29;10.27;;;;;;;-1.34;62.69;101631.81;463584;114;922453;-76
2022/12/08 02:01:13;;;;;;;10.78;9.88;;;;;;;-1.34;62.77;101630.95;463565;114;922881;-77
2022/12/08 02:02:16;;;;;;;10.81;9.99;;;;;;;-1.34;62.85;101629.14;463697;114;922487;-77
2022/12/08 02:03:23;;;;;;;11.22;10.09;;;;;;;-1.33;62.79;101635.34;463689;114;930044;-77
2022/12/08 02:04:26;;;;;;;10.12;9.27;;;;;;;-1.34;62.79;101642.52;463414;114;922919;-77
2022/12/08 02:05:33;;;;;;;11.58;10.58;;;;;;;-1.35;62.68;101632.77;463800;114;922544;-78
2022/12/08 02:06:39;;;;;;;11.29;10.28;;;;;;;-1.34;62.74;101634.48;463623;114;922465;-77
2022/12/08 02:07:43;;;;;;;11.51;10.62;;;;;;;-1.33;62.66;101638.88;463610;114;922879;-77
2022/12/08 02:08:48;;;;;;;11.19;10.17;;;;;;;-1.31;62.65;101636.06;463720;114;922570;-75
2022/12/08 02:09:53;;;;;;;11.92;10.84;;;;;;;-1.30;62.59;101640.45;463624;114;922797;-76
2022/12/08 02:10:56;;;;;;;11.03;10.12;;;;;;;-1.29;62.54;101631.47;463595;114;922499;-76
2022/12/08 02:12:00;;;;;;;11.09;10.18;;;;;;;-1.28;62.47;101636.72;463672;114;922552;-77
2022/12/08 02:13:05;;;;;;;11.34;10.38;;;;;;;-1.28;62.48;101634.04;463742;114;922490;-77
2022/12/08 02:14:12;;;;;;;11.94;10.51;;;;;;;-1.27;62.47;101640.25;463548;114;930580;-77
2022/12/08 02:15:15;;;;;;;10.39;9.58;;;;;;;-1.27;62.45;101627.69;463577;114;923146;-77
2022/12/08 02:16:42;;;;;;;10.82;9.99;;;;;;;-1.26;62.53;101625.88;463703;114;922478;-77
2022/12/08 02:18:09;;;;;;;10.19;9.29;;;;;;;-1.24;62.33;101631.98;463563;114;922594;-78
2022/12/08 02:19:43;;;;;;;10.94;10.08;;;;;;;-1.26;62.37;101624.05;438364;121;922839;-76
2022/12/08 02:21:10;;;;;;;11.24;9.69;;;;;;;-1.17;62.44;101630.56;477118;110;947043;-76
2022/12/08 02:22:25;;;;;;;10.98;10.08;;;;;;;-1.31;62.42;101626.22;465450;113;922379;-77
2022/12/08 02:23:53;;;;;;;10.68;9.88;;;;;;;-1.31;62.49;101626.22;465486;114;922485;-76
2022/12/08 02:25:00;;;;;;;11.26;10.23;;;;;;;-1.32;62.44;101627.18;461089;114;922657;-75
2022/12/08 02:26:06;;;;;;;11.58;10.73;;;;;;;-1.31;62.49;101633.39;457507;116;922570;-77
2022/12/08 02:27:47;;;;;;;11.38;10.43;;;;;;;-1.30;62.48;101632.43;455361;116;922527;-76
2022/12/08 02:29:06;;;;;;;10.54;9.74;;;;;;;-1.32;62.61;101624.51;457425;116;922521;-77
2022/12/08 02:30:16;;;;;;;11.01;10.18;;;;;;;-1.30;62.64;101619.91;457416;114;922641;-76
2022/12/08 02:31:22;;;;;;;10.72;9.84;;;;;;;-1.30;62.61;101622.58;457427;116;922547;-75
2022/12/08 02:32:52;;;;;;;11.33;10.23;;;;;;;-1.30;62.53;101616.37;457167;115;923029;-76
2022/12/08 02:34:01;;;;;;;10.77;9.68;;;;;;;-1.29;62.55;101615.41;457356;116;922532;-77
2022/12/08 02:35:26;;;;;;;10.16;9.35;;;;;;;-1.30;62.47;101617.23;457356;114;922721;-77
2022/12/08 02:36:40;;;;;;;11.81;10.77;;;;;;;-1.30;62.51;101611.88;457155;115;922490;-77
2022/12/08 02:37:49;;;;;;;11.01;9.93;;;;;;;-1.31;62.42;101618.20;455967;115;922512;-76
2022/12/08 02:39:17;;;;;;;10.97;10.16;;;;;;;-1.31;62.53;101614.66;456958;115;922623;-76
2022/12/08 02:40:30;;;;;;;10.88;9.86;;;;;;;-1.32;62.43;101604.92;457340;114;922536;-78
2022/12/08 02:41:39;;;;;;;10.11;9.36;;;;;;;-1.33;62.39;101605.92;457420;115;922580;-76
2022/12/08 02:42:52;;;;;;;10.88;9.98;;;;;;;-1.34;62.46;101605.06;457421;116;922511;-77
2022/12/08 02:44:05;;;;;;;10.32;9.58;;;;;;;-1.34;62.40;101601.53;457428;116;922889;-77
2022/12/08 02:45:15;;;;;;;11.01;10.19;;;;;;;-1.35;62.51;101603.34;457172;114;922418;-76
2022/12/08 02:46:30;;;;;;;11.20;10.31;;;;;;;-1.35;62.41;101611.38;457458;116;922891;-76
2022/12/08 02:47:34;;;;;;;10.52;9.55;;;;;;;-1.35;62.44;101607.84;457360;115;922696;-76
2022/12/08 02:48:38;;;;;;;10.69;9.81;;;;;;;-1.35;62.43;101607.84;457540;116;922410;-76
2022/12/08 02:49:41;;;;;;;10.42;9.49;;;;;;;-1.35;62.49;101602.48;457541;114;922879;-76
2022/12/08 02:50:45;;;;;;;10.93;10.03;;;;;;;-1.34;62.41;101601.53;457522;115;922782;-76
2022/12/08 02:51:48;;;;;;;10.72;9.82;;;;;;;-1.33;62.49;101600.56;457543;116;930047;-76
2022/12/08 02:52:51;;;;;;;10.55;9.64;;;;;;;-1.34;62.44;101604.20;457625;116;922691;-76
2022/12/08 02:53:55;;;;;;;10.46;9.68;;;;;;;-1.32;62.41;101607.59;457505;116;922457;-76
2022/12/08 02:55:04;;;;;;;9.62;8.76;;;;;;;-1.31;62.57;101610.17;457444;114;930426;-77
2022/12/08 02:56:30;;;;;;;9.96;9.21;;;;;;;-1.29;62.53;101605.57;457612;116;922536;-76
2022/12/08 02:57:55;;;;;;;10.03;9.21;;;;;;;-1.27;62.59;101606.29;438817;120;922870;-76
2022/12/08 02:59:16;;;;;;;9.96;9.05;;;;;;;-1.23;62.46;101616.78;438816;121;922746;-75
2022/12/08 03:00:22;;;;;;;10.48;9.51;;;;;;;-1.23;62.45;101608.76;449758;115;922524;-76
2022/12/08 03:01:41;;;;;;;10.02;9.12;;;;;;;-1.24;62.43;101605.22;457424;116;922999;-77
2022/12/08 03:03:03;;;;;;;11.07;10.13;;;;;;;-1.24;62.46;101610.58;457443;115;922465;-76
2022/12/08 03:04:27;;;;;;;9.79;8.99;;;;;;;-1.22;62.54;101603.30;457089;115;922520;-74
2022/12/08 03:05:58;;;;;;;9.88;8.59;;;;;;;-1.20;62.55;101595.13;438767;120;922911;-75
2022/12/08 03:07:07;;;;;;;10.44;9.49;;;;;;;-1.19;62.51;101587.00;438445;121;922862;-77
2022/12/08 03:08:23;;;;;;;9.83;9.02;;;;;;;-1.16;62.69;101580.58;447609;115;923163;-76
2022/12/08 03:09:30;;;;;;;10.59;9.56;;;;;;;-1.16;62.58;101584.12;457448;115;922525;-77
2022/12/08 03:10:43;;;;;;;9.44;8.69;;;;;;;-1.15;62.52;101591.14;457381;115;922570;-76
2022/12/08 03:11:58;;;;;;;10.53;9.56;;;;;;;-1.16;62.49;101592.14;457420;116;922598;-76
2022/12/08 03:13:05;;;;;;;9.19;8.40;;;;;;;-1.14;62.51;101592.00;457374;115;923111;-76
2022/12/08 03:14:12;;;;;;;9.88;8.90;;;;;;;-1.12;62.63;101590.08;457450;115;922516;-75
2022/12/08 03:15:19;;;;;;;10.15;9.21;;;;;;;-1.11;62.60;101595.33;457387;114;922531;-77
2022/12/08 03:16:25;;;;;;;9.80;8.86;;;;;;;-1.10;62.46;101590.83;457423;114;923189;-76
2022/12/08 03:17:31;;;;;;;10.75;9.27;;;;;;;-1.09;62.47;101595.19;457466;116;923814;-76
2022/12/08 03:18:37;;;;;;;9.64;8.93;;;;;;;-1.09;62.45;101593.37;457457;116;922998;-76
2022/12/08 03:19:43;;;;;;;9.84;8.79;;;;;;;-1.09;62.29;101596.04;457444;116;923152;-75
2022/12/08 03:20:48;;;;;;;9.20;8.46;;;;;;;-1.09;62.33;101593.37;457398;116;922874;-77
2022/12/08 03:21:59;;;;;;;9.53;8.57;;;;;;;-1.09;62.27;101593.37;457664;116;922796;-75
2022/12/08 03:23:01;;;;;;;9.36;8.43;;;;;;;-1.08;62.30;101591.55;458097;115;922162;-77
2022/12/08 03:24:07;;;;;;;9.19;8.24;;;;;;;-1.07;62.34;101595.94;458337;116;922218;-75
2022/12/08 03:25:13;;;;;;;8.73;7.93;;;;;;;-1.06;62.34;101593.16;458360;114;922303;-76
2022/12/08 03:26:20;;;;;;;9.43;8.61;;;;;;;-1.06;62.15;101603.00;458352;116;922409;-76
2022/12/08 03:27:29;;;;;;;9.21;8.36;;;;;;;-1.06;62.14;101603.00;458156;115;922476;-76
2022/12/08 03:28:33;;;;;;;9.26;8.46;;;;;;;-1.05;62.12;101602.04;457865;116;922665;-76
2022/12/08 03:29:36;;;;;;;8.61;7.84;;;;;;;-1.06;62.19;101603.86;458483;114;922158;-76
2022/12/08 03:30:41;;;;;;;9.09;8.28;;;;;;;-1.03;62.37;101602.76;458475;115;922159;-76
2022/12/08 03:31:48;;;;;;;9.11;8.32;;;;;;;-1.00;62.37;101607.90;458268;116;922098;-76
2022/12/08 03:33:01;;;;;;;9.36;8.55;;;;;;;-0.98;62.38;101606.80;457966;115;922457;-76
2022/12/08 03:34:04;;;;;;;9.71;8.89;;;;;;;-0.97;62.43;101599.63;458170;116;922032;-76
2022/12/08 03:35:14;;;;;;;8.59;7.73;;;;;;;-0.95;62.34;101603.05;458275;114;922252;-76
2022/12/08 03:36:18;;;;;;;8.19;7.50;;;;;;;-0.96;62.29;101599.52;458055;116;930819;-77
2022/12/08 03:37:21;;;;;;;8.22;7.54;;;;;;;-0.95;62.30;101600.38;458338;115;922634;-75
2022/12/08 03:38:25;;;;;;;8.18;7.49;;;;;;;-0.95;62.36;101616.44;458399;116;922423;-75
2022/12/08 03:39:28;;;;;;;7.74;7.14;;;;;;;-0.95;62.42;101611.94;458432;114;922730;-76
2022/12/08 03:40:31;;;;;;;8.34;7.60;;;;;;;-0.94;62.42;101612.80;458329;116;922201;-78
2022/12/08 03:41:34;;;;;;;8.83;7.96;;;;;;;-0.94;62.33;101610.11;458362;116;922312;-76
2022/12/08 03:42:37;;;;;;;8.12;7.47;;;;;;;-0.93;62.46;101609.12;458350;116;922700;-76
2022/12/08 03:43:40;;;;;;;8.08;7.45;;;;;;;-0.94;62.33;101610.11;458305;115;922604;-75
2022/12/08 03:44:44;;;;;;;8.73;7.93;;;;;;;-0.95;62.44;101611.08;458301;114;922332;-76
2022/12/08 03:45:47;;;;;;;8.06;7.46;;;;;;;-0.96;62.32;101612.05;458484;116;922287;-76
2022/12/08 03:46:50;;;;;;;8.96;8.24;;;;;;;-0.96;62.37;101612.05;458576;115;922213;-77
2022/12/08 03:47:53;;;;;;;10.57;7.91;;;;;;;-0.98;62.52;101620.17;458593;115;922197;-77
2022/12/08 03:48:57;;;;;;;8.66;7.94;;;;;;;-0.99;62.41;101612.25;458546;116;922153;-75
2022/12/08 03:50:00;;;;;;;9.19;6.96;;;;;;;-0.99;62.55;101606.91;458528;114;922154;-76
2022/12/08 03:51:03;;;;;;;9.10;8.26;;;;;;;-0.99;62.55;101606.91;458487;116;922015;-76
2022/12/08 03:52:07;;;;;;;9.05;7.75;;;;;;;-0.99;62.55;101612.25;458570;115;922587;-77
2022/12/08 03:53:10;;;;;;;8.29;7.61;;;;;;;-0.99;62.49;101614.94;458441;116;922128;-77
2022/12/08 03:54:13;;;;;;;7.69;6.92;;;;;;;-0.98;62.61;101608.61;458022;116;922408;-76
2022/12/08 03:55:17;;;;;;;8.66;7.78;;;;;;;-0.97;62.46;101615.69;457689;114;922393;-76
2022/12/08 03:56:29;;;;;;;8.81;7.96;;;;;;;-0.96;62.63;101609.36;457625;115;922473;-76
2022/12/08 03:57:32;;;;;;;8.41;7.53;;;;;;;-0.96;62.47;101617.39;457783;116;922599;-76
2022/12/08 03:58:36;;;;;;;8.19;7.44;;;;;;;-0.95;62.50;101611.08;458323;116;922590;-76
2022/12/08 03:59:40;;;;;;;8.47;7.70;;;;;;;-0.93;62.59;101617.15;457511;114;922731;-77
2022/12/08 04:00:43;;;;;;;8.49;7.62;;;;;;;-0.93;62.51;101606.44;457613;116;922622;-76
2022/12/08 04:01:46;;;;;;;7.54;6.94;;;;;;;-0.92;62.51;101600.98;457550;116;922580;-77
2022/12/08 04:02:50;;;;;;;9.24;8.39;;;;;;;-0.91;62.47;101600.02;457557;116;930455;-78
2022/12/08 04:03:53;;;;;;;7.82;7.21;;;;;;;-0.89;62.60;101608.80;457664;115;922762;-76
2022/12/08 04:04:56;;;;;;;7.26;6.63;;;;;;;-0.88;62.53;101601.59;457559;114;922610;-76
2022/12/08 04:05:59;;;;;;;8.89;7.40;;;;;;;-0.88;62.62;101605.12;457627;116;922694;-77
2022/12/08 04:07:03;;;;;;;7.66;7.07;;;;;;;-0.88;62.55;101602.45;457621;115;922746;-76
2022/12/08 04:08:06;;;;;;;8.39;7.44;;;;;;;-0.86;62.56;101599.66;457649;116;922267;-77
2022/12/08 04:09:09;;;;;;;8.58;7.92;;;;;;;-0.85;62.61;101591.52;457547;116;922695;-76
2022/12/08 04:10:12;;;;;;;7.44;6.78;;;;;;;-0.83;62.72;101594.09;457602;114;922762;-77
2022/12/08 04:11:16;;;;;;;7.54;6.79;;;;;;;-0.81;62.61;101596.63;457619;116;922528;-76
2022/12/08 04:12:20;;;;;;;8.18;7.47;;;;;;;-0.81;62.69;101591.27;457534;116;922497;-77
2022/12/08 04:13:23;;;;;;;7.95;7.25;;;;;;;-0.78;62.71;101593.73;457671;116;922573;-76
2022/12/08 04:14:26;;;;;;;9.46;8.39;;;;;;;-0.78;62.63;101597.27;457610;114;922450;-75
2022/12/08 04:15:29;;;;;;;8.37;7.56;;;;;;;-0.76;62.63;101589.09;457630;116;922952;-75
2022/12/08 04:16:32;;;;;;;8.38;7.51;;;;;;;-0.74;62.63;101605.91;455464;113;922430;-76
2022/12/08 04:17:35;;;;;;;8.43;7.71;;;;;;;-0.73;62.59;101602.27;449667;117;922450;-76
2022/12/08 04:18:39;;;;;;;7.74;7.05;;;;;;;-0.74;62.53;101604.09;449660;118;922922;-76
2022/12/08 04:19:42;;;;;;;7.95;7.34;;;;;;;-0.74;62.52;101604.09;449628;116;923340;-76
2022/12/08 04:20:45;;;;;;;8.61;7.67;;;;;;;-0.73;62.63;101603.13;449638;118;922556;-76
2022/12/08 04:21:49;;;;;;;8.66;7.84;;;;;;;-0.72;62.56;101598.63;449636;118;923020;-77
2022/12/08 04:22:52;;;;;;;10.64;7.51;;;;;;;-0.71;62.55;101602.98;449678;118;922797;-76
2022/12/08 04:23:55;;;;;;;8.31;7.51;;;;;;;-0.70;62.68;101607.38;449618;118;922865;-76
2022/12/08 04:25:00;;;;;;;7.77;7.10;;;;;;;-0.69;62.55;101598.38;449022;116;930519;-77
2022/12/08 04:26:04;;;;;;;7.80;7.19;;;;;;;-0.69;62.53;101593.88;449636;118;922568;-77
2022/12/08 04:27:07;;;;;;;8.84;7.39;;;;;;;-0.69;62.56;101585.84;449582;118;922499;-77
2022/12/08 04:28:10;;;;;;;7.46;6.76;;;;;;;-0.67;62.72;101585.73;449634;118;930989;-77
2022/12/08 04:29:13;;;;;;;7.92;7.16;;;;;;;-0.65;62.74;101587.30;449665;118;922711;-78
2022/12/08 04:30:16;;;;;;;7.78;7.14;;;;;;;-0.63;62.63;101579.16;449605;116;922589;-76
2022/12/08 04:31:19;;;;;;;7.19;6.61;;;;;;;-0.64;62.60;101572.95;449702;118;922610;-76
2022/12/08 04:32:22;;;;;;;8.91;7.64;;;;;;;-0.63;62.69;101580.02;449659;118;922457;-75
2022/12/08 04:33:26;;;;;;;7.62;6.87;;;;;;;-0.62;62.67;101579.05;449615;118;923015;-76
2022/12/08 04:34:29;;;;;;;7.65;7.03;;;;;;;-0.62;62.56;101584.41;449619;116;922391;-76
2022/12/08 04:35:32;;;;;;;7.75;7.09;;;;;;;-0.61;62.58;101590.63;449632;118;922829;-76
2022/12/08 04:36:35;;;;;;;7.98;7.23;;;;;;;-0.62;62.56;101583.55;449671;118;922573;-76
2022/12/08 04:37:38;;;;;;;7.88;7.16;;;;;;;-0.62;62.67;101592.44;449691;118;922460;-76
2022/12/08 04:38:41;;;;;;;7.30;6.63;;;;;;;-0.62;62.57;101600.48;449692;118;922553;-77
2022/12/08 04:39:44;;;;;;;7.89;7.09;;;;;;;-0.61;62.61;101598.66;449711;118;922502;-77
2022/12/08 04:40:48;;;;;;;8.35;7.22;;;;;;;-0.60;62.72;101601.19;449673;118;922535;-76
2022/12/08 04:41:51;;;;;;;7.17;6.53;;;;;;;-0.59;62.72;101589.52;449553;118;923171;-76
2022/12/08 04:42:54;;;;;;;9.17;7.41;;;;;;;-0.58;62.75;101596.58;449693;118;922519;-77
2022/12/08 04:43:57;;;;;;;7.34;6.74;;;;;;;-0.58;62.63;101599.27;449631;117;922872;-77
2022/12/08 04:45:00;;;;;;;8.21;7.30;;;;;;;-0.58;62.77;101587.69;449616;116;922847;-77
2022/12/08 04:46:08;;;;;;;7.40;6.47;;;;;;;-0.58;62.75;101596.58;449630;117;922575;-76
2022/12/08 04:47:11;;;;;;;7.21;6.66;;;;;;;-0.60;62.64;101590.48;449446;118;922533;-76
2022/12/08 04:48:14;;;;;;;8.53;7.74;;;;;;;-0.61;62.77;101595.98;449557;118;922953;-75
2022/12/08 04:49:18;;;;;;;7.31;6.42;;;;;;;-0.62;62.74;101592.44;449597;118;922462;-76
2022/12/08 04:50:21;;;;;;;7.21;6.59;;;;;;;-0.62;62.77;101592.44;449559;116;930471;-77
2022/12/08 04:51:26;;;;;;;8.13;7.28;;;;;;;-0.63;62.76;101590.73;449635;118;923448;-77
2022/12/08 04:52:29;;;;;;;8.02;7.12;;;;;;;-0.64;62.82;101593.52;449519;117;922573;-77
2022/12/08 04:53:33;;;;;;;8.29;7.36;;;;;;;-0.64;62.86;101594.38;449510;118;930483;-77
2022/12/08 04:54:36;;;;;;;7.19;6.23;;;;;;;-0.66;62.98;101593.63;449529;116;925407;-77
2022/12/08 04:55:42;;;;;;;8.09;7.49;;;;;;;-0.66;62.91;101596.30;449661;118;922541;-75
2022/12/08 04:56:46;;;;;;;7.11;6.47;;;;;;;-0.67;62.89;101594.62;449493;118;922524;-78
2022/12/08 04:57:49;;;;;;;7.31;6.71;;;;;;;-0.66;63.08;101598.16;449707;118;922747;-77
2022/12/08 04:58:52;;;;;;;8.71;7.63;;;;;;;-0.66;63.11;101608.87;449564;118;922445;-76
2022/12/08 04:59:56;;;;;;;7.58;6.78;;;;;;;-0.66;63.04;101603.52;449537;116;922915;-78
2022/12/08 05:00:59;;;;;;;7.11;6.46;;;;;;;-0.67;63.11;101608.02;449542;118;922573;-78
2022/12/08 05:02:02;;;;;;;7.16;6.59;;;;;;;-0.66;63.30;101609.70;449513;118;930531;-75
2022/12/08 05:03:06;;;;;;;7.39;6.75;;;;;;;-0.65;63.20;101606.05;449583;118;922583;-77
2022/12/08 05:04:09;;;;;;;7.05;6.40;;;;;;;-0.66;63.27;101609.70;449595;118;922847;-76
2022/12/08 05:05:12;;;;;;;7.36;6.65;;;;;;;-0.68;63.21;101611.66;450427;114;922716;-76
2022/12/08 05:06:16;;;;;;;7.44;6.42;;;;;;;-0.68;63.20;101614.34;453217;117;922434;-78
2022/12/08 05:07:19;;;;;;;8.24;7.43;;;;;;;-0.68;63.43;101627.72;453322;117;930472;-76
2022/12/08 05:08:22;;;;;;;7.14;6.46;;;;;;;-0.68;63.43;101627.72;453348;117;922428;-75